Stölln-Rhinow Airport EDOR

Flugplatz Daten

Name: Stölln-Rhinow Airport

Ident: EDOR

Lat: 52,74083328

Long: 12,39000034

Platzhöhe: 138 ft

IataCode:

City: Rhinow

Metar

2021/06/15 19:50
MSSS 151950Z 19013KT 0800 +TSRA BKN010 SCT040CB 22/22 Q1015 A2998 RMK CB ALREDEDORES

Taf

Gewünschte Webcam nicht vorhanden? Dann fügen Sie eine hinzu. Sie wird dann so schnell wie möglich freigeschaltet
Url: Title: